createdAt,value
2023-02-08T00:14:37.031Z,-1.40
2023-02-08T00:19:42.219Z,-1.40
2023-02-08T00:22:29.340Z,-0.10
2023-02-08T00:30:06.304Z,-1.80
2023-02-08T00:32:54.860Z,-1.50
2023-02-08T00:40:54.393Z,-1.60
2023-02-08T00:44:01.556Z,-1.60
2023-02-08T00:51:48.564Z,-2.20
2023-02-08T00:54:23.224Z,-1.70
2023-02-08T00:56:58.372Z,-1.50
2023-02-08T00:59:27.240Z,-1.70
2023-02-08T01:01:57.663Z,-1.50
2023-02-08T01:04:30.271Z,-1.00
2023-02-08T01:09:32.809Z,-1.30
2023-02-08T01:14:43.418Z,-1.40
2023-02-08T01:17:21.482Z,-2.00
2023-02-08T01:25:18.266Z,-1.20
2023-02-08T01:27:58.692Z,-1.30
2023-02-08T01:30:37.816Z,-1.20
2023-02-08T01:33:10.358Z,-1.60
2023-02-08T01:35:58.876Z,-1.10
2023-02-08T01:38:42.268Z,-2.20
2023-02-08T01:41:20.729Z,-1.10
2023-02-08T01:44:29.517Z,-1.10
2023-02-08T01:49:29.412Z,-1.10
2023-02-08T01:52:10.870Z,-1.10
2023-02-08T01:54:50.620Z,-1.10
2023-02-08T01:57:27.276Z,-1.10
2023-02-08T02:00:18.617Z,-0.40
2023-02-08T02:02:47.927Z,-1.20
2023-02-08T02:05:22.431Z,-1.10
2023-02-08T02:07:56.164Z,-0.10
2023-02-08T02:13:46.598Z,-1.20
2023-02-08T02:16:51.255Z,-0.90
2023-02-08T02:19:43.941Z,-1.20
2023-02-08T02:22:40.152Z,-1.30
2023-02-08T02:25:37.293Z,-1.30
2023-02-08T02:28:40.092Z,-1.30
2023-02-08T02:31:58.847Z,-1.40
2023-02-08T02:35:28.965Z,-1.70
2023-02-08T02:38:16.747Z,-1.40
2023-02-08T02:41:12.612Z,-1.40
2023-02-08T02:43:59.758Z,-1.30
2023-02-08T02:46:49.458Z,-1.30
2023-02-08T02:49:21.724Z,-1.40
2023-02-08T02:52:01.511Z,-1.40
2023-02-08T02:57:38.333Z,-1.40
2023-02-08T03:00:15.359Z,-0.50
2023-02-08T03:05:19.814Z,-2.80
2023-02-08T03:08:14.983Z,0.40
2023-02-08T03:10:51.166Z,0.20
2023-02-08T03:13:47.155Z,-1.30
2023-02-08T03:16:38.415Z,-1.30
2023-02-08T03:19:38.576Z,-1.10
2023-02-08T03:22:43.625Z,-1.20
2023-02-08T03:25:35.077Z,-1.20
2023-02-08T03:28:32.249Z,1.20
2023-02-08T03:31:16.698Z,-1.20
2023-02-08T03:34:08.420Z,-1.20
2023-02-08T03:37:01.029Z,-1.30
2023-02-08T03:39:31.515Z,-1.20
2023-02-08T03:42:00.369Z,-0.30
2023-02-08T03:44:46.401Z,-1.50
2023-02-08T03:47:39.413Z,-1.70
2023-02-08T03:50:12.503Z,-2.50
2023-02-08T03:55:13.286Z,-1.40
2023-02-08T03:58:06.629Z,-2.10
2023-02-08T04:00:38.870Z,-1.50
2023-02-08T04:03:17.215Z,0.30
2023-02-08T04:05:44.755Z,-1.50
2023-02-08T04:08:14.826Z,-1.50
2023-02-08T04:23:03.784Z,-1.60
2023-02-08T04:25:30.872Z,-1.40
2023-02-08T04:27:58.029Z,0.90
2023-02-08T04:32:55.029Z,-1.60
2023-02-08T04:40:17.930Z,-2.60
2023-02-08T04:47:41.453Z,-1.80
2023-02-08T04:50:08.556Z,-3.20
2023-02-08T04:52:35.680Z,-1.90
2023-02-08T04:55:02.750Z,-1.90
2023-02-08T04:57:32.231Z,-2.00
2023-02-08T05:00:00.436Z,-3.60
2023-02-08T05:02:27.834Z,0.00
2023-02-08T05:04:57.333Z,-0.10
2023-02-08T05:07:24.581Z,-3.60
2023-02-08T05:14:46.339Z,-1.90
2023-02-08T05:17:13.482Z,0.10
2023-02-08T05:22:07.935Z,-1.60
2023-02-08T05:24:46.846Z,-1.60
2023-02-08T05:32:46.276Z,-1.50
2023-02-08T05:35:25.404Z,-1.50
2023-02-08T05:39:10.245Z,-1.90
2023-02-08T05:44:58.058Z,-1.50
2023-02-08T05:48:41.406Z,-3.20
2023-02-08T05:51:42.868Z,-3.30
2023-02-08T05:54:52.030Z,-1.40
2023-02-08T05:57:45.885Z,-1.50
2023-02-08T06:07:24.306Z,-1.50
2023-02-08T07:00:35.060Z,-2.00
2023-02-08T07:03:50.978Z,-2.00
2023-02-08T07:07:37.442Z,-2.60
2023-02-08T07:11:02.844Z,-0.30
2023-02-08T07:13:39.968Z,-3.40
2023-02-08T07:16:11.713Z,-1.70
2023-02-08T07:21:18.467Z,-2.50
2023-02-08T07:28:47.055Z,-2.70
2023-02-08T07:31:19.628Z,0.50
2023-02-08T07:33:47.009Z,-2.40
2023-02-08T07:36:14.330Z,-0.20
2023-02-08T07:38:41.464Z,-1.50
2023-02-08T07:41:12.882Z,-0.20
2023-02-08T07:43:41.982Z,-1.30
2023-02-08T07:46:17.945Z,-1.20
2023-02-08T07:48:45.549Z,-2.40
2023-02-08T07:51:13.468Z,-0.20
2023-02-08T07:58:38.394Z,-2.10
2023-02-08T08:03:52.741Z,-0.70
2023-02-08T08:06:24.152Z,-1.00
2023-02-08T08:11:23.184Z,-0.60
2023-02-08T08:13:51.342Z,-0.60
2023-02-08T08:16:44.814Z,-0.50
2023-02-08T08:21:50.729Z,-0.40
2023-02-08T08:31:50.255Z,-0.10
2023-02-08T08:34:29.734Z,0.10
2023-02-08T08:36:57.941Z,0.00
2023-02-08T08:39:25.861Z,0.50
2023-02-08T08:42:00.032Z,0.50
2023-02-08T08:44:27.197Z,0.70
2023-02-08T08:46:58.055Z,2.20
2023-02-08T08:49:28.957Z,1.20
2023-02-08T08:51:56.279Z,1.30
2023-02-08T08:56:56.584Z,1.20
2023-02-08T08:59:29.997Z,1.40
2023-02-08T09:01:57.185Z,2.50
2023-02-08T09:04:24.424Z,1.50
2023-02-08T09:06:53.434Z,1.90
2023-02-08T09:09:21.616Z,0.60
2023-02-08T09:11:49.956Z,1.50
2023-02-08T09:14:17.142Z,1.40
2023-02-08T09:16:48.069Z,2.90
2023-02-08T09:19:16.261Z,1.50
2023-02-08T09:21:43.651Z,1.60
2023-02-08T09:24:11.376Z,1.20
2023-02-08T09:26:38.797Z,1.60
2023-02-08T09:29:06.155Z,2.90
2023-02-08T09:31:37.841Z,2.10
2023-02-08T09:34:06.068Z,3.20
2023-02-08T09:36:48.203Z,1.50
2023-02-08T09:39:35.854Z,1.70
2023-02-08T09:43:15.839Z,2.90
2023-02-08T09:46:14.260Z,2.00
2023-02-08T09:48:47.779Z,3.00
2023-02-08T09:51:30.033Z,3.90
2023-02-08T09:54:18.892Z,2.50
2023-02-08T09:56:47.485Z,3.60
2023-02-08T09:59:27.189Z,3.70
2023-02-08T10:02:04.405Z,4.20
2023-02-08T10:04:52.774Z,4.80
2023-02-08T10:08:57.102Z,5.10
2023-02-08T10:12:04.823Z,4.90
2023-02-08T10:15:50.547Z,5.80
2023-02-08T10:22:53.165Z,5.90
2023-02-08T10:26:40.015Z,6.10
2023-02-08T10:29:55.479Z,6.40
2023-02-08T10:35:44.901Z,7.10
2023-02-08T10:39:05.994Z,7.20
2023-02-08T10:45:24.867Z,7.60
2023-02-08T10:48:15.696Z,7.90
2023-02-08T10:51:36.577Z,9.30
2023-02-08T10:54:05.603Z,8.40
2023-02-08T11:00:40.127Z,8.60
2023-02-08T11:04:13.345Z,9.80
2023-02-08T11:06:42.276Z,9.10
2023-02-08T11:09:31.087Z,9.60
2023-02-08T11:12:00.732Z,9.40
2023-02-08T11:19:01.340Z,9.50
2023-02-08T11:21:38.065Z,9.50
2023-02-08T11:24:23.483Z,9.30
2023-02-08T11:26:50.723Z,9.40
2023-02-08T11:29:21.170Z,10.40
2023-02-08T11:32:16.168Z,10.00
2023-02-08T11:34:49.160Z,9.50
2023-02-08T11:37:35.304Z,10.00
2023-02-08T11:40:37.019Z,9.40
2023-02-08T11:43:05.132Z,9.30
2023-02-08T11:45:48.077Z,9.30
2023-02-08T11:48:48.453Z,9.10
2023-02-08T11:51:31.808Z,9.20
2023-02-08T11:54:00.991Z,9.10
2023-02-08T11:56:30.763Z,10.50
2023-02-08T11:59:01.441Z,8.80
2023-02-08T12:01:35.104Z,9.20
2023-02-08T12:04:06.643Z,9.40
2023-02-08T12:07:14.510Z,9.50
2023-02-08T12:10:46.471Z,9.30
2023-02-08T12:13:29.343Z,9.60
2023-02-08T12:16:25.081Z,13.50
2023-02-08T12:20:03.721Z,9.60
2023-02-08T12:22:31.752Z,9.60
2023-02-08T12:25:26.386Z,9.60
2023-02-08T12:28:18.009Z,9.50
2023-02-08T12:31:26.309Z,9.40
2023-02-08T12:38:52.169Z,8.80
2023-02-08T12:41:27.686Z,8.50
2023-02-08T12:44:45.157Z,8.50
2023-02-08T12:47:22.467Z,8.40
2023-02-08T12:50:24.529Z,9.80
2023-02-08T12:53:05.440Z,12.40
2023-02-08T12:55:55.616Z,8.10
2023-02-08T12:58:29.738Z,8.30
2023-02-08T13:01:19.559Z,8.60
2023-02-08T13:04:05.984Z,7.90
2023-02-08T13:06:44.842Z,9.30
2023-02-08T13:09:35.934Z,7.60
2023-02-08T13:12:13.682Z,6.90
2023-02-08T13:15:24.709Z,7.40
2023-02-08T13:18:23.804Z,6.30
2023-02-08T13:20:56.824Z,5.80
2023-02-08T13:23:36.543Z,6.90
2023-02-08T13:26:31.382Z,6.30
2023-02-08T13:29:02.568Z,5.40
2023-02-08T13:31:40.812Z,6.20
2023-02-08T13:34:25.545Z,6.40
2023-02-08T13:37:24.629Z,5.80
2023-02-08T13:40:30.327Z,5.50
2023-02-08T13:43:39.018Z,5.60
2023-02-08T13:46:07.549Z,5.60
2023-02-08T13:48:47.078Z,5.40
2023-02-08T13:51:32.309Z,5.20
2023-02-08T13:54:09.525Z,5.30
2023-02-08T13:56:42.515Z,5.50
2023-02-08T13:59:39.804Z,5.20
2023-02-08T14:02:16.640Z,5.20
2023-02-08T14:04:45.761Z,5.10
2023-02-08T14:07:31.136Z,6.60
2023-02-08T14:10:07.203Z,4.90
2023-02-08T14:12:48.659Z,4.90
2023-02-08T14:17:58.452Z,5.10
2023-02-08T14:20:29.431Z,5.10
2023-02-08T14:23:21.901Z,6.60
2023-02-08T14:25:51.588Z,5.00
2023-02-08T14:28:43.991Z,4.90
2023-02-08T14:31:12.993Z,4.90
2023-02-08T14:33:49.875Z,3.70
2023-02-08T14:36:31.945Z,3.90
2023-02-08T14:39:31.551Z,4.70
2023-02-08T14:42:08.192Z,5.50
2023-02-08T14:44:46.071Z,5.60
2023-02-08T14:50:03.830Z,4.50
2023-02-08T14:52:35.267Z,4.90
2023-02-08T14:55:13.673Z,6.70
2023-02-08T14:57:42.007Z,4.50
2023-02-08T15:00:34.986Z,3.80
2023-02-08T15:03:26.841Z,4.40
2023-02-08T15:06:15.617Z,4.40
2023-02-08T15:09:10.934Z,4.40
2023-02-08T15:15:20.890Z,4.20
2023-02-08T15:19:01.596Z,4.20
2023-02-08T15:24:49.020Z,3.60
2023-02-08T15:27:25.877Z,4.00
2023-02-08T15:30:55.338Z,4.00
2023-02-08T15:33:53.586Z,4.50
2023-02-08T15:40:45.111Z,3.80
2023-02-08T15:49:41.185Z,3.60
2023-02-08T15:52:21.532Z,3.30
2023-02-08T15:54:54.720Z,3.50
2023-02-08T15:57:28.610Z,3.80
2023-02-08T16:00:25.171Z,5.10
2023-02-08T16:02:58.493Z,2.80
2023-02-08T16:05:31.610Z,3.30
2023-02-08T16:08:03.444Z,3.20
2023-02-08T16:10:48.103Z,3.30
2023-02-08T16:13:26.603Z,3.20
2023-02-08T16:16:16.970Z,3.20
2023-02-08T16:18:52.333Z,2.30
2023-02-08T16:21:37.516Z,3.00
2023-02-08T16:24:13.524Z,3.10
2023-02-08T16:27:06.404Z,2.60
2023-02-08T16:29:40.162Z,3.00
2023-02-08T16:32:18.800Z,3.00
2023-02-08T16:34:46.245Z,2.80
2023-02-08T16:37:32.975Z,3.10
2023-02-08T16:40:04.980Z,2.80
2023-02-08T16:42:39.852Z,2.00
2023-02-08T16:45:22.576Z,2.80
2023-02-08T16:47:51.078Z,2.80
2023-02-08T16:50:23.938Z,4.40
2023-02-08T16:53:03.099Z,2.70
2023-02-08T16:55:36.722Z,2.30
2023-02-08T16:58:03.825Z,2.60
2023-02-08T17:00:35.514Z,1.70
2023-02-08T17:03:21.906Z,4.80
2023-02-08T17:05:48.873Z,2.70
2023-02-08T17:08:18.515Z,1.50
2023-02-08T17:10:48.645Z,2.40
2023-02-08T17:13:20.621Z,2.40
2023-02-08T17:15:50.483Z,2.80
2023-02-08T17:20:45.874Z,2.30
2023-02-08T17:25:43.362Z,2.20
2023-02-08T17:28:21.055Z,2.30
2023-02-08T17:30:49.506Z,2.50
2023-02-08T17:35:49.705Z,0.70
2023-02-08T17:38:19.496Z,3.40
2023-02-08T17:43:14.586Z,1.40
2023-02-08T17:50:43.976Z,2.00
2023-02-08T17:53:11.414Z,2.00
2023-02-08T17:55:43.490Z,2.00
2023-02-08T17:58:11.303Z,1.50
2023-02-08T18:00:38.872Z,1.80
2023-02-08T18:03:05.874Z,1.50
2023-02-08T18:05:32.865Z,0.80
2023-02-08T18:08:01.063Z,1.70
2023-02-08T18:15:24.311Z,1.40
2023-02-08T18:27:42.114Z,1.60
2023-02-08T18:30:10.607Z,1.50
2023-02-08T18:32:37.735Z,1.10
2023-02-08T18:35:07.248Z,1.60
2023-02-08T18:37:36.164Z,1.40
2023-02-08T18:42:34.116Z,1.40
2023-02-08T18:45:03.194Z,1.70
2023-02-08T18:47:30.407Z,0.50
2023-02-08T18:49:57.623Z,3.70
2023-02-08T18:54:55.521Z,1.30
2023-02-08T18:57:22.468Z,0.70
2023-02-08T19:02:21.707Z,0.90
2023-02-08T19:04:50.097Z,1.20
2023-02-08T19:07:19.571Z,1.20
2023-02-08T19:12:15.540Z,1.50
2023-02-08T19:14:44.041Z,0.10
2023-02-08T19:19:42.731Z,1.00
2023-02-08T19:22:10.899Z,1.10
2023-02-08T19:24:40.541Z,0.00
2023-02-08T19:27:07.598Z,0.20
2023-02-08T19:32:02.285Z,1.00
2023-02-08T19:34:29.369Z,1.00
2023-02-08T19:36:56.436Z,1.80
2023-02-08T19:39:25.963Z,0.80
2023-02-08T19:41:54.304Z,0.80
2023-02-08T19:46:54.019Z,0.80
2023-02-08T19:49:23.253Z,0.80
2023-02-08T19:51:50.314Z,0.50
2023-02-08T19:54:18.759Z,0.80
2023-02-08T19:56:46.546Z,0.70
2023-02-08T19:59:23.076Z,0.70
2023-02-08T20:01:50.213Z,0.70
2023-02-08T20:04:17.365Z,0.60
2023-02-08T20:09:15.367Z,1.10
2023-02-08T20:11:56.457Z,0.00
2023-02-08T20:26:45.770Z,0.40
2023-02-08T20:29:14.481Z,0.50
2023-02-08T20:31:44.492Z,0.40
2023-02-08T20:34:13.937Z,0.20
2023-02-08T20:36:45.116Z,0.40
2023-02-08T20:39:18.936Z,0.40
2023-02-08T20:44:17.082Z,0.40
2023-02-08T20:49:21.922Z,-0.30
2023-02-08T20:51:54.276Z,0.30
2023-02-08T20:54:23.873Z,-0.20
2023-02-08T20:56:51.954Z,0.10
2023-02-08T21:01:48.459Z,0.20
2023-02-08T21:04:17.192Z,0.60
2023-02-08T21:09:16.253Z,1.80
2023-02-08T21:14:18.844Z,0.10
2023-02-08T21:16:52.611Z,1.20
2023-02-08T21:19:20.860Z,0.10
2023-02-08T21:21:56.975Z,0.20
2023-02-08T21:24:24.767Z,0.30
2023-02-08T21:26:53.275Z,0.40
2023-02-08T21:29:21.355Z,0.40
2023-02-08T21:31:51.650Z,0.30
2023-02-08T21:34:19.657Z,0.20
2023-02-08T21:36:46.714Z,0.60
2023-02-08T21:39:13.938Z,0.40
2023-02-08T21:44:09.262Z,-1.00
2023-02-08T21:46:36.298Z,1.10
2023-02-08T21:49:22.025Z,0.00
2023-02-08T21:52:07.418Z,0.00
2023-02-08T21:54:41.374Z,0.00
2023-02-08T21:57:25.901Z,0.00
2023-02-08T21:59:57.759Z,0.00
2023-02-08T22:02:27.808Z,-0.10
2023-02-08T22:04:56.853Z,-0.10
2023-02-08T22:07:25.922Z,0.50
2023-02-08T22:19:59.381Z,0.20
2023-02-08T22:22:39.884Z,-0.20
2023-02-08T22:27:42.535Z,2.80
2023-02-08T22:30:12.758Z,0.00
2023-02-08T22:32:43.324Z,-0.20
2023-02-08T22:35:23.924Z,-0.20
2023-02-08T22:40:29.688Z,-0.50
2023-02-08T22:45:30.170Z,0.40
2023-02-08T22:55:35.025Z,-0.40
2023-02-08T22:58:05.369Z,-0.30
2023-02-08T23:03:04.970Z,-0.30
2023-02-08T23:08:05.501Z,-1.10
2023-02-08T23:15:30.240Z,-0.20
2023-02-08T23:20:26.319Z,-0.50
2023-02-08T23:22:53.521Z,-0.50
2023-02-08T23:37:46.368Z,-0.60
2023-02-08T23:42:41.192Z,-0.50
2023-02-08T23:47:37.484Z,-1.60
2023-02-08T23:52:34.029Z,-0.60
2023-02-08T23:57:36.784Z,-0.60
